createdAt,value
2024-01-08T00:00:46.484Z,27.10
2024-01-08T00:03:13.433Z,26.00
2024-01-08T00:05:41.382Z,26.70
2024-01-08T00:08:09.272Z,25.20
2024-01-08T00:10:39.315Z,24.80
2024-01-08T00:13:06.398Z,23.90
2024-01-08T00:15:33.719Z,23.90
2024-01-08T00:18:00.998Z,23.70
2024-01-08T00:20:28.049Z,23.90
2024-01-08T00:22:54.880Z,23.10
2024-01-08T00:25:24.476Z,23.60
2024-01-08T00:27:52.317Z,23.60
2024-01-08T00:30:19.788Z,24.70
2024-01-08T00:32:47.712Z,24.60
2024-01-08T00:35:15.466Z,24.70
2024-01-08T00:37:42.800Z,24.90
2024-01-08T00:40:10.912Z,24.70
2024-01-08T00:42:38.882Z,23.80
2024-01-08T00:45:06.727Z,24.10
2024-01-08T00:47:33.952Z,23.80
2024-01-08T00:50:02.437Z,23.90
2024-01-08T00:52:30.024Z,24.20
2024-01-08T00:54:59.805Z,24.50
2024-01-08T00:57:26.653Z,23.80
2024-01-08T00:59:53.368Z,25.00
2024-01-08T01:02:20.354Z,25.00
2024-01-08T01:04:47.588Z,25.70
2024-01-08T01:07:14.576Z,26.40
2024-01-08T01:09:41.368Z,25.80
2024-01-08T01:12:08.129Z,25.80
2024-01-08T01:14:34.952Z,25.80
2024-01-08T01:17:01.935Z,25.70
2024-01-08T01:19:28.812Z,26.20
2024-01-08T01:21:56.157Z,26.50
2024-01-08T01:24:22.988Z,27.20
2024-01-08T01:26:49.805Z,25.50
2024-01-08T01:29:16.747Z,24.50
2024-01-08T01:31:43.815Z,25.30
2024-01-08T01:34:12.268Z,25.30
2024-01-08T01:36:39.692Z,25.40
2024-01-08T01:39:07.160Z,26.00
2024-01-08T01:41:34.175Z,26.00
2024-01-08T01:44:01.302Z,25.70
2024-01-08T01:46:51.980Z,24.40
2024-01-08T01:49:24.151Z,25.40
2024-01-08T01:51:52.366Z,26.30
2024-01-08T01:54:22.860Z,27.00
2024-01-08T01:56:57.030Z,27.40
2024-01-08T01:59:26.838Z,26.40
2024-01-08T02:01:54.169Z,26.70
2024-01-08T02:04:23.554Z,26.50
2024-01-08T02:06:51.916Z,26.30
2024-01-08T02:09:19.227Z,26.00
2024-01-08T02:11:46.026Z,26.60
2024-01-08T02:14:14.503Z,26.00
2024-01-08T02:16:43.122Z,24.20
2024-01-08T02:19:10.399Z,24.80
2024-01-08T02:21:37.894Z,24.90
2024-01-08T02:24:06.358Z,25.10
2024-01-08T02:26:35.239Z,24.70
2024-01-08T02:29:03.152Z,23.70
2024-01-08T02:31:31.292Z,23.60
2024-01-08T02:33:58.145Z,23.60
2024-01-08T02:36:25.111Z,23.50
2024-01-08T02:38:51.876Z,24.80
2024-01-08T02:41:18.715Z,22.60
2024-01-08T02:43:45.559Z,23.50
2024-01-08T02:46:12.300Z,23.50
2024-01-08T02:48:39.158Z,23.60
2024-01-08T02:51:06.026Z,23.70
2024-01-08T02:53:32.985Z,22.80
2024-01-08T02:55:59.813Z,21.00
2024-01-08T02:58:26.666Z,22.50
2024-01-08T03:00:53.568Z,20.60
2024-01-08T03:03:20.477Z,22.30
2024-01-08T03:05:47.269Z,20.30
2024-01-08T03:08:14.329Z,21.70
2024-01-08T03:10:41.238Z,21.20
2024-01-08T03:13:08.053Z,21.80
2024-01-08T03:15:34.826Z,22.50
2024-01-08T03:18:01.682Z,21.10
2024-01-08T03:20:28.586Z,20.30
2024-01-08T03:22:55.768Z,21.30
2024-01-08T03:25:22.609Z,22.20
2024-01-08T03:27:49.670Z,20.90
2024-01-08T03:30:16.979Z,20.00
2024-01-08T03:32:44.084Z,20.80
2024-01-08T03:35:11.966Z,20.60
2024-01-08T03:37:39.385Z,20.50
2024-01-08T03:40:07.755Z,20.00
2024-01-08T03:42:34.801Z,19.30
2024-01-08T03:45:02.218Z,20.10
2024-01-08T03:47:29.078Z,19.30
2024-01-08T03:49:56.869Z,19.50
2024-01-08T03:52:26.938Z,19.80
2024-01-08T03:54:53.939Z,20.30
2024-01-08T03:57:20.832Z,20.70
2024-01-08T03:59:48.230Z,20.60
2024-01-08T04:02:15.560Z,20.70
2024-01-08T04:04:46.028Z,19.90
2024-01-08T04:07:13.102Z,19.80
2024-01-08T04:09:41.144Z,19.90
2024-01-08T04:12:08.403Z,19.80
2024-01-08T04:14:37.447Z,19.30
2024-01-08T04:17:07.280Z,18.70
2024-01-08T04:19:34.459Z,19.50
2024-01-08T04:22:01.611Z,19.20
2024-01-08T04:24:28.359Z,19.60
2024-01-08T04:26:55.331Z,18.50
2024-01-08T04:29:22.179Z,17.40
2024-01-08T04:31:49.053Z,17.80
2024-01-08T04:34:15.977Z,17.30
2024-01-08T04:36:45.346Z,18.50
2024-01-08T04:39:12.600Z,18.30
2024-01-08T04:41:41.386Z,18.20
2024-01-08T04:44:09.534Z,17.90
2024-01-08T04:46:36.875Z,17.00
2024-01-08T04:49:04.984Z,17.60
2024-01-08T04:51:31.934Z,17.40
2024-01-08T04:53:58.925Z,17.10
2024-01-08T04:56:28.899Z,17.20
2024-01-08T04:58:56.833Z,17.40
2024-01-08T05:01:24.029Z,17.20
2024-01-08T05:03:51.136Z,17.20
2024-01-08T05:06:18.345Z,17.40
2024-01-08T05:08:45.216Z,15.60
2024-01-08T05:11:12.485Z,17.40
2024-01-08T05:13:42.319Z,16.80
2024-01-08T05:16:09.517Z,17.00
2024-01-08T05:18:36.392Z,16.50
2024-01-08T05:21:05.845Z,15.80
2024-01-08T05:23:32.914Z,16.50
2024-01-08T05:26:01.235Z,16.00
2024-01-08T05:28:31.361Z,15.90
2024-01-08T05:30:59.214Z,16.80
2024-01-08T05:33:29.688Z,16.60
2024-01-08T05:35:56.571Z,15.50
2024-01-08T05:38:23.611Z,14.10
2024-01-08T05:40:51.332Z,15.60
2024-01-08T05:43:18.658Z,15.70
2024-01-08T05:45:45.613Z,16.60
2024-01-08T05:48:13.934Z,16.20
2024-01-08T05:50:41.766Z,16.30
2024-01-08T05:53:08.801Z,15.80
2024-01-08T05:55:35.970Z,16.50
2024-01-08T05:58:02.789Z,16.80
2024-01-08T06:00:29.713Z,15.50
2024-01-08T06:02:56.861Z,15.50
2024-01-08T06:05:24.075Z,15.40
2024-01-08T06:07:51.315Z,14.00
2024-01-08T06:10:18.271Z,13.40
2024-01-08T06:12:45.163Z,14.10
2024-01-08T06:15:12.433Z,14.40
2024-01-08T06:17:41.759Z,12.40
2024-01-08T06:20:11.422Z,12.40
2024-01-08T06:22:38.341Z,13.50
2024-01-08T06:25:05.837Z,14.30
2024-01-08T06:27:33.206Z,12.50
2024-01-08T06:30:00.677Z,12.50
2024-01-08T06:32:27.859Z,12.40
2024-01-08T06:34:55.125Z,13.60
2024-01-08T06:37:22.179Z,12.50
2024-01-08T06:39:49.238Z,13.80
2024-01-08T06:42:16.080Z,13.90
2024-01-08T06:44:42.963Z,13.90
2024-01-08T06:47:37.451Z,12.60
2024-01-08T06:50:25.064Z,12.90
2024-01-08T06:53:12.398Z,12.40
2024-01-08T06:55:59.615Z,12.50
2024-01-08T06:58:26.619Z,12.40
2024-01-08T07:00:53.455Z,12.40
2024-01-08T07:03:20.515Z,12.30
2024-01-08T07:05:49.157Z,12.50
2024-01-08T07:08:16.197Z,13.90
2024-01-08T07:10:43.238Z,12.80
2024-01-08T07:13:10.912Z,13.60
2024-01-08T07:15:38.613Z,13.70
2024-01-08T07:18:06.150Z,12.50
2024-01-08T07:20:33.145Z,13.50
2024-01-08T07:23:00.059Z,12.30
2024-01-08T07:25:27.363Z,12.50
2024-01-08T07:27:54.122Z,12.60
2024-01-08T07:30:21.779Z,12.40
2024-01-08T07:32:49.255Z,13.90
2024-01-08T07:35:16.270Z,14.10
2024-01-08T07:37:43.171Z,14.00
2024-01-08T07:40:10.412Z,14.40
2024-01-08T07:42:37.229Z,13.80
2024-01-08T07:45:04.299Z,13.50
2024-01-08T07:47:32.339Z,13.80
2024-01-08T07:49:59.300Z,13.80
2024-01-08T07:52:35.046Z,14.40
2024-01-08T07:55:06.033Z,13.20
2024-01-08T07:57:32.884Z,12.80
2024-01-08T07:59:59.689Z,14.00
2024-01-08T08:02:27.211Z,14.30
2024-01-08T08:04:54.987Z,14.70
2024-01-08T08:07:22.161Z,14.40
2024-01-08T08:09:49.010Z,14.60
2024-01-08T08:12:15.858Z,14.40
2024-01-08T08:14:42.996Z,15.30
2024-01-08T08:17:10.448Z,15.50
2024-01-08T08:19:38.935Z,14.70
2024-01-08T08:22:05.930Z,15.20
2024-01-08T08:24:32.713Z,14.90
2024-01-08T08:27:01.352Z,15.20
2024-01-08T08:29:29.995Z,14.80
2024-01-08T08:31:58.962Z,15.50
2024-01-08T08:34:29.192Z,14.90
2024-01-08T08:36:57.100Z,14.90
2024-01-08T08:39:24.041Z,15.30
2024-01-08T08:41:51.026Z,14.90
2024-01-08T08:44:19.705Z,13.40
2024-01-08T08:46:46.604Z,15.20
2024-01-08T08:49:14.942Z,14.70
2024-01-08T08:51:41.841Z,14.00
2024-01-08T08:54:08.768Z,13.50
2024-01-08T08:56:35.564Z,14.60
2024-01-08T08:59:02.872Z,15.40
2024-01-08T09:01:29.814Z,14.90
2024-01-08T09:03:57.009Z,13.60
2024-01-08T09:06:25.381Z,15.20
2024-01-08T09:08:54.189Z,15.20
2024-01-08T09:11:21.479Z,15.70
2024-01-08T09:13:48.601Z,16.00
2024-01-08T09:16:16.560Z,15.30
2024-01-08T09:18:44.429Z,16.10
2024-01-08T09:21:12.597Z,17.30
2024-01-08T09:23:41.131Z,16.20
2024-01-08T09:26:08.344Z,15.50
2024-01-08T09:28:35.631Z,16.10
2024-01-08T09:31:04.048Z,15.90
2024-01-08T09:33:31.896Z,16.20
2024-01-08T09:35:59.887Z,16.20
2024-01-08T09:38:26.817Z,15.90
2024-01-08T09:40:58.896Z,15.80
2024-01-08T09:43:36.417Z,15.50
2024-01-08T09:46:07.598Z,16.20
2024-01-08T09:48:35.395Z,16.00
2024-01-08T09:51:03.177Z,16.20
2024-01-08T09:53:31.569Z,16.00
2024-01-08T09:55:59.888Z,16.30
2024-01-08T09:58:27.437Z,16.70
2024-01-08T10:00:55.605Z,16.40
2024-01-08T10:03:22.614Z,16.50
2024-01-08T10:05:49.623Z,16.60
2024-01-08T10:08:17.930Z,16.40
2024-01-08T10:10:44.816Z,14.30
2024-01-08T10:13:13.206Z,14.90
2024-01-08T10:15:40.057Z,15.50
2024-01-08T10:18:10.190Z,15.80
2024-01-08T10:20:37.887Z,15.70
2024-01-08T10:23:07.035Z,16.10
2024-01-08T10:25:38.975Z,16.30
2024-01-08T10:28:12.218Z,16.70
2024-01-08T10:30:41.600Z,16.80
2024-01-08T10:33:09.416Z,16.70
2024-01-08T10:35:37.071Z,16.60
2024-01-08T10:38:05.535Z,17.30
2024-01-08T10:40:32.419Z,17.50
2024-01-08T10:43:00.342Z,17.30
2024-01-08T10:45:27.221Z,16.10
2024-01-08T10:48:21.865Z,16.60
2024-01-08T10:50:52.805Z,17.10
2024-01-08T10:53:37.131Z,16.60
2024-01-08T10:56:07.022Z,16.30
2024-01-08T10:58:38.732Z,16.80
2024-01-08T11:01:05.711Z,16.30
2024-01-08T11:03:33.052Z,16.40
2024-01-08T11:06:03.896Z,15.20
2024-01-08T11:08:32.691Z,15.80
2024-01-08T11:11:10.277Z,15.80
2024-01-08T11:13:41.351Z,16.00
2024-01-08T11:16:09.799Z,13.30
2024-01-08T11:18:40.051Z,14.60
2024-01-08T11:21:07.989Z,15.30
2024-01-08T11:23:43.643Z,14.10
2024-01-08T11:26:26.652Z,15.20
2024-01-08T11:29:08.591Z,14.90
2024-01-08T11:31:41.667Z,14.70
2024-01-08T11:34:47.040Z,14.60
2024-01-08T11:37:31.079Z,14.80
2024-01-08T11:40:02.245Z,16.00
2024-01-08T11:42:30.543Z,16.00
2024-01-08T11:45:04.093Z,15.60
2024-01-08T11:47:32.087Z,14.80
2024-01-08T11:49:59.154Z,15.80
2024-01-08T11:52:29.988Z,14.30
2024-01-08T11:54:57.301Z,12.90
2024-01-08T11:57:25.034Z,12.80
2024-01-08T11:59:51.891Z,13.60
2024-01-08T12:02:21.648Z,12.70
2024-01-08T12:04:56.119Z,14.50
2024-01-08T12:07:24.494Z,13.30
2024-01-08T12:09:51.731Z,12.70
2024-01-08T12:12:20.332Z,13.20
2024-01-08T12:14:48.281Z,14.50
2024-01-08T12:17:17.545Z,14.70
2024-01-08T12:19:58.416Z,13.20
2024-01-08T12:22:27.340Z,12.80
2024-01-08T12:24:56.585Z,12.70
2024-01-08T12:27:27.168Z,12.80
2024-01-08T12:29:56.351Z,14.50
2024-01-08T12:32:24.876Z,12.90
2024-01-08T12:34:51.999Z,12.80
2024-01-08T12:37:22.372Z,12.80
2024-01-08T12:39:49.434Z,12.90
2024-01-08T12:42:18.310Z,12.90
2024-01-08T12:44:46.276Z,12.80
2024-01-08T12:47:13.494Z,12.80
2024-01-08T12:49:41.246Z,12.80
2024-01-08T12:52:11.186Z,12.80
2024-01-08T12:54:40.805Z,12.80
2024-01-08T12:57:08.708Z,12.80
2024-01-08T12:59:37.054Z,12.80
2024-01-08T13:02:04.929Z,12.80
2024-01-08T13:04:31.955Z,12.90
2024-01-08T13:06:59.068Z,12.80
2024-01-08T13:09:25.953Z,12.80
2024-01-08T13:11:53.205Z,12.80
2024-01-08T13:14:20.302Z,12.90
2024-01-08T13:16:49.266Z,12.80
2024-01-08T13:19:16.808Z,10.40
2024-01-08T13:21:46.438Z,12.10
2024-01-08T13:24:18.142Z,12.80
2024-01-08T13:26:47.898Z,12.70
2024-01-08T13:29:14.895Z,12.70
2024-01-08T13:31:41.812Z,12.80
2024-01-08T13:34:09.348Z,12.80
2024-01-08T13:36:37.703Z,12.80
2024-01-08T13:39:11.908Z,13.00
2024-01-08T13:41:43.613Z,11.90
2024-01-08T13:44:11.879Z,11.50
2024-01-08T13:46:39.794Z,12.90
2024-01-08T13:49:06.924Z,13.00
2024-01-08T13:51:34.071Z,13.10
2024-01-08T13:54:00.964Z,11.80
2024-01-08T13:56:28.414Z,12.20
2024-01-08T13:58:55.259Z,13.10
2024-01-08T14:01:22.956Z,10.80
2024-01-08T14:03:49.899Z,11.30
2024-01-08T14:06:17.028Z,12.20
2024-01-08T14:08:44.094Z,12.20
2024-01-08T14:11:12.045Z,13.10
2024-01-08T14:13:40.019Z,13.10
2024-01-08T14:16:08.118Z,13.20
2024-01-08T14:18:35.556Z,13.10
2024-01-08T14:21:03.311Z,11.40
2024-01-08T14:23:30.918Z,11.20
2024-01-08T14:26:00.596Z,10.60
2024-01-08T14:28:29.504Z,11.70
2024-01-08T14:30:57.562Z,11.90
2024-01-08T14:33:25.447Z,11.80
2024-01-08T14:35:52.889Z,12.90
2024-01-08T14:38:21.476Z,12.90
2024-01-08T14:40:49.890Z,11.40
2024-01-08T14:43:17.642Z,12.90
2024-01-08T14:45:45.303Z,11.30
2024-01-08T14:48:13.312Z,12.90
2024-01-08T14:50:40.375Z,12.90
2024-01-08T14:53:07.382Z,13.00
2024-01-08T14:55:34.342Z,12.30
2024-01-08T14:58:01.344Z,12.70
2024-01-08T15:00:28.785Z,12.80
2024-01-08T15:02:56.168Z,12.70
2024-01-08T15:05:26.209Z,12.80
2024-01-08T15:07:54.072Z,12.50
2024-01-08T15:10:20.915Z,12.60
2024-01-08T15:12:47.905Z,12.60
2024-01-08T15:15:14.878Z,12.60
2024-01-08T15:17:41.766Z,12.60
2024-01-08T15:20:09.751Z,12.60
2024-01-08T15:22:36.683Z,12.50
2024-01-08T15:25:03.575Z,12.60
2024-01-08T15:27:30.821Z,12.70
2024-01-08T15:29:57.868Z,12.60
2024-01-08T15:32:26.210Z,12.60
2024-01-08T15:34:53.090Z,12.70
2024-01-08T15:37:19.980Z,12.70
2024-01-08T15:39:47.026Z,12.90
2024-01-08T15:42:13.991Z,12.80
2024-01-08T15:44:41.045Z,12.70
2024-01-08T15:47:08.068Z,12.60
2024-01-08T15:49:35.031Z,13.00
2024-01-08T15:52:02.743Z,13.70
2024-01-08T15:54:29.547Z,14.30
2024-01-08T15:56:56.908Z,14.30
2024-01-08T15:59:24.016Z,13.50
2024-01-08T16:01:50.923Z,13.40
2024-01-08T16:04:17.921Z,13.50
2024-01-08T16:06:48.233Z,14.20
2024-01-08T16:09:17.252Z,13.80
2024-01-08T16:11:44.194Z,14.20
2024-01-08T16:14:11.219Z,14.10
2024-01-08T16:16:38.051Z,14.60
2024-01-08T16:19:05.016Z,14.90
2024-01-08T16:21:32.153Z,14.90
2024-01-08T16:24:06.608Z,14.20
2024-01-08T16:26:40.148Z,13.50
2024-01-08T16:29:07.623Z,14.00
2024-01-08T16:31:34.623Z,15.30
2024-01-08T16:34:02.294Z,14.20
2024-01-08T16:36:29.885Z,14.30
2024-01-08T16:38:56.803Z,13.50
2024-01-08T16:41:23.772Z,14.10
2024-01-08T16:43:51.931Z,14.00
2024-01-08T16:46:18.841Z,12.60
2024-01-08T16:48:45.911Z,12.70
2024-01-08T16:51:14.929Z,14.00
2024-01-08T16:53:41.893Z,12.60
2024-01-08T16:56:09.132Z,12.70
2024-01-08T16:58:37.004Z,13.20
2024-01-08T17:01:05.232Z,13.30
2024-01-08T17:03:33.780Z,12.60
2024-01-08T17:06:02.797Z,13.60
2024-01-08T17:08:31.425Z,12.90
2024-01-08T17:10:58.261Z,13.50
2024-01-08T17:13:25.528Z,13.80
2024-01-08T17:15:52.373Z,13.80
2024-01-08T17:18:21.810Z,14.60
2024-01-08T17:20:49.027Z,12.90
2024-01-08T17:23:16.205Z,13.90
2024-01-08T17:25:44.303Z,14.30
2024-01-08T17:28:11.335Z,14.00
2024-01-08T17:30:39.696Z,13.80
2024-01-08T17:33:07.467Z,12.60
2024-01-08T17:35:35.541Z,12.70
2024-01-08T17:38:02.421Z,14.00
2024-01-08T17:40:30.333Z,13.70
2024-01-08T17:42:57.436Z,14.50
2024-01-08T17:45:24.282Z,14.30
2024-01-08T17:47:51.401Z,14.50
2024-01-08T17:50:18.651Z,14.50
2024-01-08T17:52:45.830Z,14.70
2024-01-08T17:55:13.400Z,14.80
2024-01-08T17:57:40.336Z,14.80
2024-01-08T18:00:07.989Z,14.90
2024-01-08T18:02:34.782Z,15.50
2024-01-08T18:05:01.890Z,15.30
2024-01-08T18:07:28.956Z,15.30
2024-01-08T18:09:56.044Z,15.20
2024-01-08T18:12:24.158Z,15.20
2024-01-08T18:14:51.124Z,15.30
2024-01-08T18:17:18.401Z,15.50
2024-01-08T18:19:45.229Z,15.60
2024-01-08T18:22:12.212Z,16.40
2024-01-08T18:24:39.082Z,15.60
2024-01-08T18:27:07.037Z,15.50
2024-01-08T18:29:34.002Z,15.70
2024-01-08T18:32:01.544Z,16.00
2024-01-08T18:34:30.040Z,16.50
2024-01-08T18:36:58.913Z,17.40
2024-01-08T18:39:25.827Z,16.30
2024-01-08T18:41:52.907Z,16.30
2024-01-08T18:44:19.963Z,15.90
2024-01-08T18:46:47.270Z,16.40
2024-01-08T18:49:14.507Z,16.70
2024-01-08T18:51:42.080Z,16.90
2024-01-08T18:54:08.847Z,17.00
2024-01-08T18:56:35.824Z,17.00
2024-01-08T18:59:02.934Z,16.60
2024-01-08T19:01:29.677Z,16.80
2024-01-08T19:03:56.773Z,17.30
2024-01-08T19:06:26.959Z,17.50
2024-01-08T19:08:54.453Z,18.20
2024-01-08T19:11:21.674Z,18.30
2024-01-08T19:13:48.612Z,18.20
2024-01-08T19:16:21.999Z,18.10
2024-01-08T19:18:49.606Z,18.10
2024-01-08T19:21:16.877Z,18.50
2024-01-08T19:23:44.537Z,18.70
2024-01-08T19:26:11.584Z,18.90
2024-01-08T19:28:40.770Z,19.10
2024-01-08T19:31:10.484Z,19.30
2024-01-08T19:33:37.578Z,19.50
2024-01-08T19:36:05.669Z,19.20
2024-01-08T19:38:32.813Z,19.90
2024-01-08T19:40:59.873Z,20.90
2024-01-08T19:43:26.680Z,20.00
2024-01-08T19:45:53.598Z,19.80
2024-01-08T19:48:20.748Z,19.70
2024-01-08T19:50:47.981Z,19.90
2024-01-08T19:53:14.972Z,20.40
2024-01-08T19:55:42.410Z,20.50
2024-01-08T19:58:09.293Z,20.30
2024-01-08T20:00:36.274Z,20.40
2024-01-08T20:03:03.288Z,19.60
2024-01-08T20:05:30.853Z,20.30
2024-01-08T20:07:57.929Z,20.30
2024-01-08T20:10:25.811Z,20.40
2024-01-08T20:12:52.733Z,20.40
2024-01-08T20:15:19.543Z,20.00
2024-01-08T20:17:47.774Z,20.10
2024-01-08T20:20:16.471Z,20.70
2024-01-08T20:22:44.529Z,20.20
2024-01-08T20:25:14.898Z,20.40
2024-01-08T20:27:41.724Z,20.70
2024-01-08T20:30:09.531Z,20.40
2024-01-08T20:32:37.023Z,20.20
2024-01-08T20:35:04.452Z,19.90
2024-01-08T20:37:31.370Z,19.90
2024-01-08T20:39:58.664Z,19.40
2024-01-08T20:42:25.648Z,19.40
2024-01-08T20:44:52.862Z,19.70
2024-01-08T20:47:20.392Z,19.50
2024-01-08T20:49:49.275Z,19.60
2024-01-08T20:52:17.584Z,19.70
2024-01-08T20:54:45.677Z,19.40
2024-01-08T20:57:12.691Z,19.60
2024-01-08T20:59:42.975Z,19.20
2024-01-08T21:02:10.086Z,19.70
2024-01-08T21:04:37.449Z,18.80
2024-01-08T21:07:04.525Z,19.10
2024-01-08T21:09:31.780Z,19.40
2024-01-08T21:11:58.726Z,19.70
2024-01-08T21:14:25.527Z,19.40
2024-01-08T21:16:52.481Z,19.50
2024-01-08T21:19:19.475Z,19.70
2024-01-08T21:21:46.373Z,19.60
2024-01-08T21:24:15.197Z,19.50
2024-01-08T21:26:43.138Z,19.60
2024-01-08T21:29:10.091Z,19.70
2024-01-08T21:31:36.977Z,19.50
2024-01-08T21:34:04.073Z,19.00
2024-01-08T21:36:31.019Z,19.30
2024-01-08T21:38:58.292Z,18.80
2024-01-08T21:41:25.241Z,18.60
2024-01-08T21:43:52.157Z,18.60
2024-01-08T21:46:18.937Z,19.10
2024-01-08T21:48:46.603Z,18.50
2024-01-08T21:51:13.681Z,18.30
2024-01-08T21:53:40.729Z,18.40
2024-01-08T21:56:08.110Z,18.20
2024-01-08T21:58:35.125Z,18.20
2024-01-08T22:01:01.974Z,18.30
2024-01-08T22:03:28.852Z,17.70
2024-01-08T22:05:56.289Z,17.70
2024-01-08T22:08:23.485Z,17.40
2024-01-08T22:10:50.477Z,17.50
2024-01-08T22:13:17.296Z,17.40
2024-01-08T22:15:45.925Z,17.00
2024-01-08T22:18:14.062Z,17.20
2024-01-08T22:20:41.004Z,17.00
2024-01-08T22:23:07.910Z,16.50
2024-01-08T22:25:34.694Z,17.30
2024-01-08T22:28:01.541Z,16.00
2024-01-08T22:30:28.390Z,15.80
2024-01-08T22:32:56.734Z,15.10
2024-01-08T22:35:24.480Z,14.30
2024-01-08T22:37:54.557Z,14.10
2024-01-08T22:40:21.466Z,13.80
2024-01-08T22:42:48.247Z,13.70
2024-01-08T22:45:16.104Z,13.80
2024-01-08T22:47:44.245Z,14.60
2024-01-08T22:50:11.521Z,15.10
2024-01-08T22:52:38.435Z,15.80
2024-01-08T22:55:05.641Z,16.30
2024-01-08T22:57:32.374Z,16.40
2024-01-08T23:00:00.570Z,16.50
2024-01-08T23:02:27.425Z,16.60
2024-01-08T23:04:54.288Z,16.40
2024-01-08T23:07:21.433Z,16.80
2024-01-08T23:09:48.241Z,16.80
2024-01-08T23:12:14.997Z,16.40
2024-01-08T23:14:42.517Z,16.80
2024-01-08T23:17:09.455Z,17.10
2024-01-08T23:19:36.290Z,16.70
2024-01-08T23:22:03.182Z,16.60
2024-01-08T23:24:32.517Z,16.90
2024-01-08T23:27:01.987Z,17.00
2024-01-08T23:29:28.910Z,16.70
2024-01-08T23:31:55.829Z,16.90
2024-01-08T23:34:23.385Z,16.20
2024-01-08T23:36:50.568Z,16.10
2024-01-08T23:39:17.564Z,16.40
2024-01-08T23:41:44.566Z,16.30
2024-01-08T23:44:13.854Z,16.00
2024-01-08T23:46:41.714Z,15.70
2024-01-08T23:49:08.727Z,15.80
2024-01-08T23:51:35.723Z,17.30
2024-01-08T23:54:02.431Z,16.10
2024-01-08T23:56:29.208Z,16.20
2024-01-08T23:58:56.024Z,16.50
